King of Scandinavia — OVOL2 — position and weather

sailwx.info

Track history (hours):
 
Tides and Currents Weather Stations Pressure Air Temp Water Temp Dewpoint Dewpoint Depression Visibility Wind Speed Wind Dir Waves Ship Positions

King of Scandinavia

Ship's website: http://www.dfds.co.uk/DSW/EN/OnBoard/na/KING.htm

Last reported at 2019-Nov-20 08:30 UTC. Time now 2019-Nov-20 09:29 UTC.
Position N 54°60' W 001°18'.

Length 166 m; beam 27.6 m; draft 6.2 m.

Type: Ship. MMSI: 220449000.

Date/timePositionNaut miles runAvg speedWind from/ knotsBaromVisibWave heightAir tempDewpointWater temp
2019-Nov-20 08:30N 54°60' W 001°18'25816.1
2019-Nov-19 16:31N 52°28' E 004°34'1 0.5
2019-Nov-19 14:29N 52°28' E 004°35'0 0.0
2019-Nov-19 13:29N 52°28' E 004°35'0 0.0
2019-Nov-19 10:59N 52°28' E 004°35'0 0.0
2019-Nov-19 08:59N 52°28' E 004°35'26315.5
2019-Nov-18 16:00N 54°59' W 001°27'0 0.0
2019-Nov-18 15:30N 54°59' W 001°27'0 0.0
2019-Nov-18 13:00N 54°59' W 001°27'0 0.0
2019-Nov-18 12:30N 54°59' W 001°27'0 0.0
2019-Nov-18 11:00N 54°59' W 001°27'0 0.0
2019-Nov-18 09:30N 54°59' W 001°27'24615.4
2019-Nov-17 17:30N 52°38' E 004°14'816.7
2019-Nov-17 17:00N 52°33' E 004°24'6 0.7
2019-Nov-17 07:30N 52°37' E 004°16'23417.7
2019-Nov-16 18:17N 54°54' W 001°04'1316.3
2019-Nov-16 17:30N 55°01' W 001°23'3 5.5
2019-Nov-16 17:01N 54°59' W 001°27'0 0.0
2019-Nov-16 16:00N 54°59' W 001°27'0 0.0
2019-Nov-16 15:30N 54°59' W 001°27'26310.9
2019-Nov-15 15:27N 52°28' E 004°35'0 0.0
2019-Nov-15 13:30N 52°28' E 004°35'0 0.0
2019-Nov-15 12:00N 52°28' E 004°35'0 0.0
2019-Nov-15 09:30N 52°28' E 004°35'0 0.2
2019-Nov-15 08:31N 52°28' E 004°35'1912.7
2019-Nov-15 07:00N 52°39' E 004°09'22917.4
2019-Nov-14 17:49N 54°53' W 001°05'620.0
2019-Nov-14 17:30N 54°57' W 001°13'8 1.2
2019-Nov-14 10:30N 54°59' W 001°27'26314.2
2019-Nov-13 16:00N 52°28' E 004°35'0 0.0
2019-Nov-13 14:28N 52°28' E 004°35'0 0.0
2019-Nov-13 13:58N 52°28' E 004°35'0 0.0
2019-Nov-13 12:28N 52°28' E 004°35'0 0.0
2019-Nov-13 11:28N 52°28' E 004°35'0 0.0
2019-Nov-13 09:58N 52°28' E 004°35'0 0.0
2019-Nov-13 09:25N 52°28' E 004°35'0 0.0
2019-Nov-13 08:30N 52°28' E 004°35'13515.9
2019-Nov-13 00:01N 53°48' E 001°34'917.5
2019-Nov-12 23:30N 53°54' E 001°23'10418.0
2019-Nov-12 17:44N 54°53' W 001°04'15 6.3
2019-Nov-12 15:23N 54°59' W 001°27'0 0.0
2019-Nov-12 14:53N 54°59' W 001°27'0 0.0
2019-Nov-12 13:56N 54°59' W 001°27'0 0.0
2019-Nov-12 13:26N 54°59' W 001°27'0 0.0
2019-Nov-12 12:59N 54°59' W 001°27'0 0.0
2019-Nov-12 11:56N 54°59' W 001°27'0 0.0
2019-Nov-12 11:26N 54°59' W 001°27'0 0.0
2019-Nov-12 09:59N 54°59' W 001°27'0 0.1
2019-Nov-12 09:00N 54°60' W 001°27'10915.9
2019-Nov-12 02:06N 54°02' E 001°13'1217.7
2019-Nov-12 01:25N 53°53' E 001°28'13016.4
2019-Nov-11 17:30N 52°35' E 004°21'816.6
2019-Nov-11 17:00N 52°29' E 004°31'3 5.9
2019-Nov-11 16:30N 52°28' E 004°35'0 0.0
2019-Nov-11 14:58N 52°28' E 004°35'0 0.0
2019-Nov-11 12:58N 52°28' E 004°35'0 0.0
2019-Nov-11 11:58N 52°28' E 004°35'0 0.0
2019-Nov-11 10:28N 52°28' E 004°35'0 0.0
2019-Nov-11 08:58N 52°28' E 004°35'12615.8
2019-Nov-11 00:59N 53°43' E 001°46'817.0
2019-Nov-11 00:31N 53°48' E 001°36'1717.1
2019-Nov-10 23:31N 53°60' E 001°15'11214.8
2019-Nov-10 15:58N 54°59' W 001°27'1 0.1
2019-Nov-10 09:00N 54°60' W 001°27'  
Track history (hours):
 
Tides and Currents Weather Stations Pressure Air Temp Water Temp Dewpoint Dewpoint Depression Visibility Wind Speed Wind Dir Waves Ship Positions

King of Scandinavia

Ship's website: http://www.dfds.co.uk/DSW/EN/OnBoard/na/KING.htm

Last reported at 2019-Nov-20 08:30 UTC. Time now 2019-Nov-20 09:29 UTC.
Position N 54°60' W 001°18'.

Length 166 m; beam 27.6 m; draft 6.2 m.

Type: Ship. MMSI: 220449000.

Date/timePositionNaut miles runAvg speedWind from/ knotsBaromVisibWave heightAir tempDewpointWater temp
2019-Nov-20 08:30N 54°60' W 001°18'25816.1
2019-Nov-19 16:31N 52°28' E 004°34'1 0.5
2019-Nov-19 14:29N 52°28' E 004°35'0 0.0
2019-Nov-19 13:29N 52°28' E 004°35'0 0.0
2019-Nov-19 10:59N 52°28' E 004°35'0 0.0
2019-Nov-19 08:59N 52°28' E 004°35'26315.5
2019-Nov-18 16:00N 54°59' W 001°27'0 0.0
2019-Nov-18 15:30N 54°59' W 001°27'0 0.0
2019-Nov-18 13:00N 54°59' W 001°27'0 0.0
2019-Nov-18 12:30N 54°59' W 001°27'0 0.0
2019-Nov-18 11:00N 54°59' W 001°27'0 0.0
2019-Nov-18 09:30N 54°59' W 001°27'24615.4
2019-Nov-17 17:30N 52°38' E 004°14'816.7
2019-Nov-17 17:00N 52°33' E 004°24'6 0.7
2019-Nov-17 07:30N 52°37' E 004°16'23417.7
2019-Nov-16 18:17N 54°54' W 001°04'1316.3
2019-Nov-16 17:30N 55°01' W 001°23'3 5.5
2019-Nov-16 17:01N 54°59' W 001°27'0 0.0
2019-Nov-16 16:00N 54°59' W 001°27'0 0.0
2019-Nov-16 15:30N 54°59' W 001°27'26310.9
2019-Nov-15 15:27N 52°28' E 004°35'0 0.0
2019-Nov-15 13:30N 52°28' E 004°35'0 0.0
2019-Nov-15 12:00N 52°28' E 004°35'0 0.0
2019-Nov-15 09:30N 52°28' E 004°35'0 0.2
2019-Nov-15 08:31N 52°28' E 004°35'1912.7
2019-Nov-15 07:00N 52°39' E 004°09'22917.4
2019-Nov-14 17:49N 54°53' W 001°05'620.0
2019-Nov-14 17:30N 54°57' W 001°13'8 1.2
2019-Nov-14 10:30N 54°59' W 001°27'26314.2
2019-Nov-13 16:00N 52°28' E 004°35'0 0.0
2019-Nov-13 14:28N 52°28' E 004°35'0 0.0
2019-Nov-13 13:58N 52°28' E 004°35'0 0.0
2019-Nov-13 12:28N 52°28' E 004°35'0 0.0
2019-Nov-13 11:28N 52°28' E 004°35'0 0.0
2019-Nov-13 09:58N 52°28' E 004°35'0 0.0
2019-Nov-13 09:25N 52°28' E 004°35'0 0.0
2019-Nov-13 08:30N 52°28' E 004°35'13515.9
2019-Nov-13 00:01N 53°48' E 001°34'917.5
2019-Nov-12 23:30N 53°54' E 001°23'10418.0
2019-Nov-12 17:44N 54°53' W 001°04'15 6.3
2019-Nov-12 15:23N 54°59' W 001°27'0 0.0
2019-Nov-12 14:53N 54°59' W 001°27'0 0.0
2019-Nov-12 13:56N 54°59' W 001°27'0 0.0
2019-Nov-12 13:26N 54°59' W 001°27'0 0.0
2019-Nov-12 12:59N 54°59' W 001°27'0 0.0
2019-Nov-12 11:56N 54°59' W 001°27'0 0.0
2019-Nov-12 11:26N 54°59' W 001°27'0 0.0
2019-Nov-12 09:59N 54°59' W 001°27'0 0.1
2019-Nov-12 09:00N 54°60' W 001°27'10915.9
2019-Nov-12 02:06N 54°02' E 001°13'1217.7
2019-Nov-12 01:25N 53°53' E 001°28'13016.4
2019-Nov-11 17:30N 52°35' E 004°21'816.6
2019-Nov-11 17:00N 52°29' E 004°31'3 5.9
2019-Nov-11 16:30N 52°28' E 004°35'0 0.0
2019-Nov-11 14:58N 52°28' E 004°35'0 0.0
2019-Nov-11 12:58N 52°28' E 004°35'0 0.0
2019-Nov-11 11:58N 52°28' E 004°35'0 0.0
2019-Nov-11 10:28N 52°28' E 004°35'0 0.0
2019-Nov-11 08:58N 52°28' E 004°35'12615.8
2019-Nov-11 00:59N 53°43' E 001°46'817.0
2019-Nov-11 00:31N 53°48' E 001°36'1717.1
2019-Nov-10 23:31N 53°60' E 001°15'11214.8
2019-Nov-10 15:58N 54°59' W 001°27'1 0.1
2019-Nov-10 09:00N 54°60' W 001°27'  

Dump ship's entire track history